createdAt,value
2024-03-24T00:06:50.484Z,75.33
2024-03-24T00:10:31.047Z,75.43
2024-03-24T00:14:12.759Z,75.58
2024-03-24T00:17:59.491Z,75.55
2024-03-24T00:21:28.658Z,75.66
2024-03-24T00:25:19.920Z,75.69
2024-03-24T00:28:49.658Z,75.69
2024-03-24T00:32:12.642Z,75.69
2024-03-24T00:36:06.207Z,75.81
2024-03-24T00:39:53.879Z,75.78
2024-03-24T00:43:21.435Z,75.80
2024-03-24T00:47:09.993Z,75.83
2024-03-24T00:50:57.775Z,75.95
2024-03-24T00:54:49.009Z,75.80
2024-03-24T00:58:42.518Z,75.85
2024-03-24T01:02:27.624Z,75.97
2024-03-24T01:06:28.449Z,75.88
2024-03-24T01:14:00.578Z,76.16
2024-03-24T01:21:20.958Z,76.05
2024-03-24T01:25:15.551Z,76.05
2024-03-24T01:32:53.894Z,76.09
2024-03-24T01:36:50.585Z,76.43
2024-03-24T01:40:50.364Z,76.27
2024-03-24T01:44:41.411Z,76.42
2024-03-24T01:48:29.142Z,76.29
2024-03-24T01:52:20.797Z,76.40
2024-03-24T01:56:03.571Z,76.39
2024-03-24T01:59:58.514Z,76.45
2024-03-24T02:10:58.639Z,76.71
2024-03-24T02:18:51.270Z,77.01
2024-03-24T02:22:39.243Z,77.24
2024-03-24T02:26:26.988Z,77.29
2024-03-24T02:30:10.740Z,77.51
2024-03-24T02:34:08.832Z,77.74
2024-03-24T02:38:01.774Z,77.81
2024-03-24T02:41:57.530Z,78.20
2024-03-24T02:45:39.156Z,78.47
2024-03-24T02:49:17.719Z,78.41
2024-03-24T02:52:58.718Z,78.49
2024-03-24T02:56:50.174Z,78.62
2024-03-24T03:00:32.833Z,78.86
2024-03-24T03:04:22.841Z,79.14
2024-03-24T03:08:23.583Z,79.46
2024-03-24T03:12:07.353Z,79.67
2024-03-24T03:15:55.075Z,79.85
2024-03-24T03:24:12.340Z,80.08
2024-03-24T03:27:53.276Z,80.09
2024-03-24T03:31:40.968Z,80.21
2024-03-24T03:39:41.374Z,80.53
2024-03-24T03:43:30.137Z,80.58
2024-03-24T03:47:20.703Z,80.56
2024-03-24T03:51:08.548Z,80.49
2024-03-24T03:54:51.604Z,80.42
2024-03-24T03:58:38.128Z,80.53
2024-03-24T04:02:24.745Z,80.45
2024-03-24T04:06:21.818Z,80.33
2024-03-24T04:09:57.902Z,80.40
2024-03-24T04:13:03.540Z,80.49
2024-03-24T04:25:04.747Z,80.46
2024-03-24T04:29:01.721Z,80.42
2024-03-24T04:36:30.307Z,80.60
2024-03-24T04:44:06.906Z,80.44
2024-03-24T04:47:58.967Z,80.57
2024-03-24T04:51:30.550Z,80.67
2024-03-24T04:55:17.335Z,80.63
2024-03-24T04:58:44.793Z,80.56
2024-03-24T05:02:44.599Z,80.56
2024-03-24T05:06:36.010Z,80.61
2024-03-24T05:10:24.945Z,80.59
2024-03-24T05:14:12.832Z,80.40
2024-03-24T05:18:00.697Z,80.53
2024-03-24T05:21:41.821Z,80.49
2024-03-24T05:25:35.044Z,80.59
2024-03-24T05:37:00.616Z,80.36
2024-03-24T05:41:06.001Z,80.57
2024-03-24T05:44:45.188Z,80.64
2024-03-24T05:48:42.199Z,80.40
2024-03-24T05:52:30.006Z,80.45
2024-03-24T05:56:19.009Z,80.47
2024-03-24T06:00:08.862Z,80.39
2024-03-24T06:03:38.949Z,80.49
2024-03-24T06:07:28.203Z,80.47
2024-03-24T06:11:16.996Z,80.45
2024-03-24T06:26:19.113Z,80.11
2024-03-24T06:30:07.960Z,80.22
2024-03-24T06:34:01.070Z,80.09
2024-03-24T06:37:48.886Z,80.26
2024-03-24T06:45:34.192Z,80.03
2024-03-24T06:49:41.219Z,79.84
2024-03-24T06:53:28.997Z,79.99
2024-03-24T07:01:33.323Z,79.87
2024-03-24T07:05:32.283Z,79.37
2024-03-24T07:13:38.794Z,79.24
2024-03-24T07:17:27.862Z,78.56
2024-03-24T07:21:05.730Z,78.57
2024-03-24T07:29:17.244Z,78.40
2024-03-24T07:32:55.785Z,78.17
2024-03-24T07:40:59.467Z,78.02
2024-03-24T07:44:57.138Z,77.91
2024-03-24T07:52:39.909Z,77.68
2024-03-24T07:55:49.757Z,77.77
2024-03-24T07:59:30.645Z,77.46
2024-03-24T08:03:24.434Z,77.29
2024-03-24T08:07:16.748Z,77.23
2024-03-24T08:10:59.289Z,76.83
2024-03-24T08:18:58.778Z,76.83
2024-03-24T08:23:05.063Z,76.44
2024-03-24T08:31:14.798Z,76.19
2024-03-24T08:38:55.264Z,76.55
2024-03-24T08:42:46.856Z,76.37
2024-03-24T08:50:41.046Z,75.95
2024-03-24T08:54:14.875Z,75.40
2024-03-24T09:11:06.034Z,74.82
2024-03-24T09:23:12.827Z,70.99
2024-03-24T09:31:22.235Z,70.76
2024-03-24T09:35:13.455Z,70.53
2024-03-24T09:39:06.928Z,70.29
2024-03-24T09:42:54.722Z,70.30
2024-03-24T09:46:35.971Z,70.54
2024-03-24T09:50:25.807Z,70.33
2024-03-24T09:54:12.039Z,70.38
2024-03-24T10:02:16.725Z,71.13
2024-03-24T10:06:04.933Z,71.58
2024-03-24T10:09:52.695Z,71.45
2024-03-24T10:17:08.016Z,71.38
2024-03-24T10:21:14.007Z,71.25
2024-03-24T10:25:05.371Z,71.63
2024-03-24T10:33:04.712Z,71.42
2024-03-24T10:37:02.178Z,71.67
2024-03-24T10:41:11.205Z,71.45
2024-03-24T10:49:13.504Z,71.76
2024-03-24T10:53:27.316Z,71.91
2024-03-24T11:01:13.004Z,71.98
2024-03-24T11:04:29.277Z,72.22
2024-03-24T11:12:34.899Z,72.26
2024-03-24T11:28:55.772Z,72.90
2024-03-24T11:32:07.230Z,72.94
2024-03-24T11:43:53.185Z,72.99
2024-03-24T11:47:46.889Z,72.81
2024-03-24T12:00:32.117Z,72.79
2024-03-24T12:04:11.040Z,72.72
2024-03-24T12:07:58.835Z,72.09
2024-03-24T12:24:33.204Z,70.58
2024-03-24T12:28:04.186Z,70.59
2024-03-24T12:35:07.177Z,70.34
2024-03-24T12:38:55.849Z,70.19
2024-03-24T12:47:08.983Z,70.05
2024-03-24T12:55:20.760Z,69.67
2024-03-24T12:59:20.786Z,69.02
2024-03-24T13:23:40.452Z,68.01
2024-03-24T13:27:01.125Z,68.00
2024-03-24T13:30:47.296Z,67.31
2024-03-24T13:34:42.637Z,67.01
2024-03-24T13:51:36.540Z,66.60
2024-03-24T13:55:26.688Z,66.58
2024-03-24T13:59:14.545Z,66.72
2024-03-24T14:05:49.784Z,66.49
2024-03-24T14:11:48.130Z,66.56
2024-03-24T14:15:07.155Z,66.42
2024-03-24T14:18:17.214Z,66.23
2024-03-24T14:22:22.184Z,66.41
2024-03-24T14:26:24.634Z,66.42
2024-03-24T14:34:32.931Z,67.58
2024-03-24T14:47:03.897Z,67.60
2024-03-24T14:50:59.499Z,67.40
2024-03-24T14:58:46.788Z,66.94
2024-03-24T15:02:39.735Z,66.75
2024-03-24T15:15:04.224Z,66.90
2024-03-24T15:18:44.881Z,66.71
2024-03-24T15:22:02.109Z,66.50
2024-03-24T15:30:10.616Z,66.19
2024-03-24T15:33:49.094Z,66.00
2024-03-24T15:37:35.014Z,65.78
2024-03-24T15:41:15.307Z,65.75
2024-03-24T15:45:05.128Z,65.94
2024-03-24T15:48:52.887Z,66.25
2024-03-24T15:52:31.162Z,66.25
2024-03-24T15:55:57.285Z,66.47
2024-03-24T15:59:54.565Z,66.97
2024-03-24T16:03:42.148Z,67.45
2024-03-24T16:07:30.780Z,67.73
2024-03-24T16:11:28.309Z,68.04
2024-03-24T16:15:08.587Z,68.48
2024-03-24T16:19:11.956Z,69.12
2024-03-24T16:23:08.744Z,69.47
2024-03-24T16:31:17.842Z,70.54
2024-03-24T16:35:09.397Z,70.82
2024-03-24T16:38:56.775Z,70.96
2024-03-24T16:42:49.064Z,71.06
2024-03-24T16:46:20.710Z,71.22
2024-03-24T16:50:08.560Z,71.27
2024-03-24T16:53:41.873Z,71.16
2024-03-24T16:57:28.209Z,71.12
2024-03-24T17:01:07.522Z,71.18
2024-03-24T17:05:01.420Z,71.20
2024-03-24T17:08:42.082Z,71.42
2024-03-24T17:11:55.375Z,71.44
2024-03-24T17:15:04.604Z,71.41
2024-03-24T17:18:41.917Z,71.45
2024-03-24T17:22:43.916Z,71.56
2024-03-24T17:26:43.491Z,71.61
2024-03-24T17:30:15.868Z,71.70
2024-03-24T17:33:48.883Z,71.84
2024-03-24T17:41:51.429Z,72.12
2024-03-24T17:45:38.375Z,72.10
2024-03-24T17:48:59.650Z,72.38
2024-03-24T17:52:50.576Z,72.40
2024-03-24T17:56:40.566Z,72.41
2024-03-24T18:04:47.078Z,72.53
2024-03-24T18:08:21.617Z,72.69
2024-03-24T18:12:27.649Z,73.06
2024-03-24T18:16:01.702Z,72.93
2024-03-24T18:19:52.735Z,72.89
2024-03-24T18:23:34.005Z,73.38
2024-03-24T18:27:04.893Z,73.26
2024-03-24T18:30:36.191Z,73.38
2024-03-24T18:34:18.399Z,73.38
2024-03-24T18:37:55.282Z,73.53
2024-03-24T18:41:43.677Z,73.39
2024-03-24T18:45:24.137Z,73.52
2024-03-24T18:49:08.965Z,73.72
2024-03-24T18:52:58.418Z,73.95
2024-03-24T18:56:30.714Z,74.12
2024-03-24T19:00:28.729Z,74.22
2024-03-24T19:08:18.472Z,74.34
2024-03-24T19:16:15.857Z,74.72
2024-03-24T19:20:11.497Z,74.34
2024-03-24T19:28:04.626Z,74.69
2024-03-24T19:31:43.067Z,74.76
2024-03-24T19:35:18.774Z,74.61
2024-03-24T19:39:05.345Z,74.65
2024-03-24T19:42:05.570Z,74.94
2024-03-24T19:45:06.412Z,74.97
2024-03-24T19:48:04.755Z,74.66
2024-03-24T19:51:43.295Z,75.00
2024-03-24T19:55:06.473Z,74.90
2024-03-24T19:58:43.047Z,74.90
2024-03-24T20:02:14.383Z,75.04
2024-03-24T20:05:45.884Z,75.05
2024-03-24T20:08:55.250Z,75.04
2024-03-24T20:12:30.079Z,75.26
2024-03-24T20:16:11.443Z,75.55
2024-03-24T20:19:51.917Z,75.78
2024-03-24T20:23:45.892Z,75.93
2024-03-24T20:27:42.601Z,76.31
2024-03-24T20:31:16.892Z,76.05
2024-03-24T20:34:50.049Z,75.92
2024-03-24T20:38:24.008Z,75.78
2024-03-24T20:42:03.225Z,75.94
2024-03-24T20:49:41.091Z,76.04
2024-03-24T20:53:10.369Z,76.30
2024-03-24T20:56:27.773Z,76.29
2024-03-24T20:59:48.271Z,76.46
2024-03-24T21:03:27.358Z,76.44
2024-03-24T21:07:15.126Z,76.10
2024-03-24T21:10:36.436Z,76.50
2024-03-24T21:14:24.161Z,76.67
2024-03-24T21:18:11.559Z,76.50
2024-03-24T21:22:01.076Z,76.38
2024-03-24T21:25:48.988Z,76.85
2024-03-24T21:29:42.916Z,76.61
2024-03-24T21:32:40.053Z,76.81
2024-03-24T21:36:11.946Z,76.77
2024-03-24T21:40:49.730Z,77.15
2024-03-24T21:44:54.378Z,77.23
2024-03-24T21:47:51.906Z,77.36
2024-03-24T21:51:32.276Z,77.28
2024-03-24T21:55:13.094Z,77.24
2024-03-24T21:58:35.244Z,76.99
2024-03-24T22:02:13.387Z,77.51
2024-03-24T22:06:34.531Z,77.48
2024-03-24T22:10:15.172Z,77.61
2024-03-24T22:13:50.802Z,77.86
2024-03-24T22:17:39.029Z,78.00
2024-03-24T22:21:31.073Z,78.02
2024-03-24T22:25:15.883Z,78.13
2024-03-24T22:29:05.290Z,78.07
2024-03-24T22:33:01.126Z,78.16
2024-03-24T22:37:45.562Z,78.32
2024-03-24T22:40:53.740Z,78.28
2024-03-24T22:44:37.988Z,78.19
2024-03-24T22:48:31.530Z,78.17
2024-03-24T22:53:08.155Z,77.94
2024-03-24T22:56:09.463Z,78.17
2024-03-24T22:59:58.607Z,78.16
2024-03-24T23:03:32.196Z,78.15
2024-03-24T23:06:53.188Z,78.17
2024-03-24T23:10:36.440Z,78.09
2024-03-24T23:14:21.771Z,78.21
2024-03-24T23:18:14.673Z,78.06
2024-03-24T23:22:14.186Z,78.39
2024-03-24T23:25:59.064Z,78.37
2024-03-24T23:29:46.243Z,78.03
2024-03-24T23:33:42.697Z,78.38
2024-03-24T23:37:24.321Z,78.15
2024-03-24T23:40:34.542Z,78.47
2024-03-24T23:44:08.034Z,78.27
2024-03-24T23:47:47.788Z,78.21
2024-03-24T23:51:18.031Z,78.34
2024-03-24T23:55:06.792Z,78.38
2024-03-24T23:58:50.825Z,78.35
